sensor_id;sensor_type;location;lat;lon;timestamp;P1;durP1;ratioP1;P2;durP2;ratioP2
31680;SDS011;18281;51.364;9.566;2023-02-15T00:01:16;17.88;;;11.95;;
31680;SDS011;18281;51.364;9.566;2023-02-15T00:03:41;17.17;;;11.02;;
31680;SDS011;18281;51.364;9.566;2023-02-15T00:06:07;15.88;;;10.90;;
31680;SDS011;18281;51.364;9.566;2023-02-15T00:08:32;19.20;;;11.63;;
31680;SDS011;18281;51.364;9.566;2023-02-15T00:11:05;16.23;;;11.18;;
31680;SDS011;18281;51.364;9.566;2023-02-15T00:13:31;19.08;;;12.45;;
31680;SDS011;18281;51.364;9.566;2023-02-15T00:16:00;17.27;;;11.13;;
31680;SDS011;18281;51.364;9.566;2023-02-15T00:18:27;20.55;;;12.18;;
31680;SDS011;18281;51.364;9.566;2023-02-15T00:20:52;20.10;;;11.88;;
31680;SDS011;18281;51.364;9.566;2023-02-15T00:23:18;21.00;;;11.90;;
31680;SDS011;18281;51.364;9.566;2023-02-15T00:25:43;18.20;;;11.48;;
31680;SDS011;18281;51.364;9.566;2023-02-15T00:28:08;17.98;;;10.65;;
31680;SDS011;18281;51.364;9.566;2023-02-15T00:30:34;17.63;;;10.85;;
31680;SDS011;18281;51.364;9.566;2023-02-15T00:32:59;19.45;;;12.07;;
31680;SDS011;18281;51.364;9.566;2023-02-15T00:35:24;18.77;;;11.82;;
31680;SDS011;18281;51.364;9.566;2023-02-15T00:37:50;18.80;;;11.30;;
31680;SDS011;18281;51.364;9.566;2023-02-15T00:40:17;18.05;;;11.70;;
31680;SDS011;18281;51.364;9.566;2023-02-15T00:42:42;17.90;;;11.35;;
31680;SDS011;18281;51.364;9.566;2023-02-15T00:45:08;17.10;;;10.65;;
31680;SDS011;18281;51.364;9.566;2023-02-15T00:47:34;19.52;;;11.65;;
31680;SDS011;18281;51.364;9.566;2023-02-15T00:49:59;18.05;;;11.23;;
31680;SDS011;18281;51.364;9.566;2023-02-15T00:52:24;15.73;;;10.40;;
31680;SDS011;18281;51.364;9.566;2023-02-15T00:54:53;16.25;;;11.05;;
31680;SDS011;18281;51.364;9.566;2023-02-15T00:57:18;14.93;;;10.25;;
31680;SDS011;18281;51.364;9.566;2023-02-15T00:59:43;16.20;;;10.98;;
31680;SDS011;18281;51.364;9.566;2023-02-15T01:02:09;18.38;;;11.23;;
31680;SDS011;18281;51.364;9.566;2023-02-15T01:04:34;20.00;;;11.32;;
31680;SDS011;18281;51.364;9.566;2023-02-15T01:06:59;14.50;;;9.82;;
31680;SDS011;18281;51.364;9.566;2023-02-15T01:09:26;15.30;;;9.82;;
31680;SDS011;18281;51.364;9.566;2023-02-15T01:11:52;16.17;;;9.75;;
31680;SDS011;18281;51.364;9.566;2023-02-15T01:14:17;16.13;;;10.23;;
31680;SDS011;18281;51.364;9.566;2023-02-15T01:16:42;17.55;;;10.60;;
31680;SDS011;18281;51.364;9.566;2023-02-15T01:19:08;14.52;;;10.00;;
31680;SDS011;18281;51.364;9.566;2023-02-15T01:21:33;19.02;;;10.90;;
31680;SDS011;18281;51.364;9.566;2023-02-15T01:23:59;16.10;;;10.27;;
31680;SDS011;18281;51.364;9.566;2023-02-15T01:26:25;15.63;;;9.73;;
31680;SDS011;18281;51.364;9.566;2023-02-15T01:28:51;15.10;;;10.15;;
31680;SDS011;18281;51.364;9.566;2023-02-15T01:31:17;15.95;;;10.13;;
31680;SDS011;18281;51.364;9.566;2023-02-15T01:33:44;18.05;;;10.93;;
31680;SDS011;18281;51.364;9.566;2023-02-15T01:36:11;15.27;;;10.60;;
31680;SDS011;18281;51.364;9.566;2023-02-15T01:38:37;18.50;;;11.02;;
31680;SDS011;18281;51.364;9.566;2023-02-15T01:41:02;15.05;;;10.10;;
31680;SDS011;18281;51.364;9.566;2023-02-15T01:43:49;16.70;;;10.95;;
31680;SDS011;18281;51.364;9.566;2023-02-15T01:46:20;20.80;;;11.30;;
31680;SDS011;18281;51.364;9.566;2023-02-15T01:49:03;17.05;;;10.40;;
31680;SDS011;18281;51.364;9.566;2023-02-15T01:51:42;17.08;;;10.65;;
31680;SDS011;18281;51.364;9.566;2023-02-15T01:56:54;13.07;;;9.25;;
31680;SDS011;18281;51.364;9.566;2023-02-15T01:59:25;15.45;;;10.38;;
31680;SDS011;18281;51.364;9.566;2023-02-15T02:01:51;14.93;;;10.10;;
31680;SDS011;18281;51.364;9.566;2023-02-15T02:04:29;13.27;;;9.65;;
31680;SDS011;18281;51.364;9.566;2023-02-15T02:07:00;18.02;;;10.18;;
31680;SDS011;18281;51.364;9.566;2023-02-15T02:09:26;16.38;;;9.93;;
31680;SDS011;18281;51.364;9.566;2023-02-15T02:11:51;17.17;;;9.57;;
31680;SDS011;18281;51.364;9.566;2023-02-15T02:14:19;15.05;;;9.77;;
31680;SDS011;18281;51.364;9.566;2023-02-15T02:19:32;14.02;;;9.75;;
31680;SDS011;18281;51.364;9.566;2023-02-15T02:37:08;16.63;;;9.57;;
31680;SDS011;18281;51.364;9.566;2023-02-15T02:42:43;16.83;;;10.68;;
31680;SDS011;18281;51.364;9.566;2023-02-15T02:47:52;14.68;;;9.80;;
31680;SDS011;18281;51.364;9.566;2023-02-15T02:50:25;14.38;;;9.55;;
31680;SDS011;18281;51.364;9.566;2023-02-15T02:52:53;12.98;;;9.18;;
31680;SDS011;18281;51.364;9.566;2023-02-15T02:55:22;12.57;;;8.93;;
31680;SDS011;18281;51.364;9.566;2023-02-15T03:00:21;12.75;;;9.00;;
31680;SDS011;18281;51.364;9.566;2023-02-15T03:02:51;15.43;;;9.93;;
31680;SDS011;18281;51.364;9.566;2023-02-15T03:05:23;14.52;;;8.57;;
31680;SDS011;18281;51.364;9.566;2023-02-15T03:07:52;14.80;;;9.25;;
31680;SDS011;18281;51.364;9.566;2023-02-15T03:10:20;13.05;;;8.93;;
31680;SDS011;18281;51.364;9.566;2023-02-15T03:12:48;15.05;;;9.25;;
31680;SDS011;18281;51.364;9.566;2023-02-15T03:15:16;15.30;;;9.98;;
31680;SDS011;18281;51.364;9.566;2023-02-15T03:17:50;14.50;;;9.20;;
31680;SDS011;18281;51.364;9.566;2023-02-15T03:20:22;14.65;;;9.48;;
31680;SDS011;18281;51.364;9.566;2023-02-15T03:22:57;13.98;;;9.65;;
31680;SDS011;18281;51.364;9.566;2023-02-15T03:25:46;17.05;;;9.57;;
31680;SDS011;18281;51.364;9.566;2023-02-15T03:28:21;14.48;;;9.57;;
31680;SDS011;18281;51.364;9.566;2023-02-15T03:30:52;13.93;;;9.20;;
31680;SDS011;18281;51.364;9.566;2023-02-15T03:33:20;17.70;;;10.48;;
31680;SDS011;18281;51.364;9.566;2023-02-15T03:38:30;13.48;;;9.45;;
31680;SDS011;18281;51.364;9.566;2023-02-15T03:41:03;13.77;;;8.65;;
31680;SDS011;18281;51.364;9.566;2023-02-15T03:46:20;15.40;;;9.68;;
31680;SDS011;18281;51.364;9.566;2023-02-15T03:49:07;16.25;;;9.95;;
31680;SDS011;18281;51.364;9.566;2023-02-15T03:51:40;14.68;;;9.68;;
31680;SDS011;18281;51.364;9.566;2023-02-15T03:54:08;18.38;;;9.63;;
31680;SDS011;18281;51.364;9.566;2023-02-15T03:56:40;14.25;;;9.25;;
31680;SDS011;18281;51.364;9.566;2023-02-15T03:59:07;14.57;;;9.82;;
31680;SDS011;18281;51.364;9.566;2023-02-15T04:04:24;13.70;;;8.93;;
31680;SDS011;18281;51.364;9.566;2023-02-15T04:06:56;14.30;;;9.35;;
31680;SDS011;18281;51.364;9.566;2023-02-15T04:09:22;12.20;;;8.80;;
31680;SDS011;18281;51.364;9.566;2023-02-15T04:12:06;14.05;;;9.32;;
31680;SDS011;18281;51.364;9.566;2023-02-15T04:14:31;15.18;;;9.77;;
31680;SDS011;18281;51.364;9.566;2023-02-15T04:17:15;13.25;;;8.95;;
31680;SDS011;18281;51.364;9.566;2023-02-15T04:19:40;14.50;;;9.70;;
31680;SDS011;18281;51.364;9.566;2023-02-15T04:22:24;20.27;;;10.20;;
31680;SDS011;18281;51.364;9.566;2023-02-15T04:25:08;15.55;;;10.50;;
31680;SDS011;18281;51.364;9.566;2023-02-15T04:27:41;17.13;;;11.43;;
31680;SDS011;18281;51.364;9.566;2023-02-15T04:30:08;20.85;;;11.63;;
31680;SDS011;18281;51.364;9.566;2023-02-15T04:32:35;18.60;;;10.82;;
31680;SDS011;18281;51.364;9.566;2023-02-15T04:35:01;19.38;;;11.50;;
31680;SDS011;18281;51.364;9.566;2023-02-15T04:37:27;21.55;;;11.77;;
31680;SDS011;18281;51.364;9.566;2023-02-15T04:39:53;23.73;;;12.52;;
31680;SDS011;18281;51.364;9.566;2023-02-15T04:42:18;23.63;;;12.60;;
31680;SDS011;18281;51.364;9.566;2023-02-15T04:44:44;23.63;;;13.02;;
31680;SDS011;18281;51.364;9.566;2023-02-15T04:47:09;24.80;;;13.73;;
31680;SDS011;18281;51.364;9.566;2023-02-15T04:49:34;22.85;;;12.90;;
31680;SDS011;18281;51.364;9.566;2023-02-15T04:52:00;23.13;;;13.20;;
31680;SDS011;18281;51.364;9.566;2023-02-15T04:54:25;20.67;;;11.30;;
31680;SDS011;18281;51.364;9.566;2023-02-15T04:56:50;21.63;;;12.15;;
31680;SDS011;18281;51.364;9.566;2023-02-15T04:59:16;17.17;;;10.57;;
31680;SDS011;18281;51.364;9.566;2023-02-15T05:01:41;18.63;;;10.35;;
31680;SDS011;18281;51.364;9.566;2023-02-15T05:04:06;17.75;;;10.80;;
31680;SDS011;18281;51.364;9.566;2023-02-15T05:06:32;19.10;;;11.02;;
31680;SDS011;18281;51.364;9.566;2023-02-15T05:08:57;18.67;;;11.20;;
31680;SDS011;18281;51.364;9.566;2023-02-15T05:11:26;16.50;;;10.55;;
31680;SDS011;18281;51.364;9.566;2023-02-15T05:13:51;14.75;;;9.70;;
31680;SDS011;18281;51.364;9.566;2023-02-15T05:16:16;16.30;;;10.38;;
31680;SDS011;18281;51.364;9.566;2023-02-15T05:18:42;16.45;;;10.30;;
31680;SDS011;18281;51.364;9.566;2023-02-15T05:21:07;14.40;;;8.95;;
31680;SDS011;18281;51.364;9.566;2023-02-15T05:23:33;14.18;;;9.75;;
31680;SDS011;18281;51.364;9.566;2023-02-15T05:25:58;13.55;;;8.93;;
31680;SDS011;18281;51.364;9.566;2023-02-15T05:28:42;15.43;;;10.15;;
31680;SDS011;18281;51.364;9.566;2023-02-15T05:31:09;15.10;;;9.80;;
31680;SDS011;18281;51.364;9.566;2023-02-15T05:33:36;11.57;;;7.22;;
31680;SDS011;18281;51.364;9.566;2023-02-15T05:36:02;15.07;;;9.40;;
31680;SDS011;18281;51.364;9.566;2023-02-15T05:38:28;15.95;;;9.68;;
31680;SDS011;18281;51.364;9.566;2023-02-15T05:40:54;13.48;;;9.65;;
31680;SDS011;18281;51.364;9.566;2023-02-15T05:43:20;15.82;;;9.00;;
31680;SDS011;18281;51.364;9.566;2023-02-15T05:45:50;16.23;;;9.75;;
31680;SDS011;18281;51.364;9.566;2023-02-15T05:48:16;15.98;;;10.25;;
31680;SDS011;18281;51.364;9.566;2023-02-15T05:50:43;14.27;;;9.07;;
31680;SDS011;18281;51.364;9.566;2023-02-15T05:53:08;15.35;;;9.68;;
31680;SDS011;18281;51.364;9.566;2023-02-15T05:55:34;16.30;;;9.32;;
31680;SDS011;18281;51.364;9.566;2023-02-15T05:58:02;13.40;;;9.02;;
31680;SDS011;18281;51.364;9.566;2023-02-15T06:00:27;15.20;;;9.57;;
31680;SDS011;18281;51.364;9.566;2023-02-15T06:02:52;14.15;;;8.65;;
31680;SDS011;18281;51.364;9.566;2023-02-15T06:05:18;14.80;;;9.57;;
31680;SDS011;18281;51.364;9.566;2023-02-15T06:07:43;13.15;;;9.57;;
31680;SDS011;18281;51.364;9.566;2023-02-15T06:10:09;15.25;;;9.00;;
31680;SDS011;18281;51.364;9.566;2023-02-15T06:12:35;12.88;;;9.10;;
31680;SDS011;18281;51.364;9.566;2023-02-15T06:15:00;16.08;;;9.82;;
31680;SDS011;18281;51.364;9.566;2023-02-15T06:17:26;12.43;;;8.70;;
31680;SDS011;18281;51.364;9.566;2023-02-15T06:19:51;14.38;;;9.45;;
31680;SDS011;18281;51.364;9.566;2023-02-15T06:22:16;16.08;;;9.10;;
31680;SDS011;18281;51.364;9.566;2023-02-15T06:24:42;13.98;;;9.50;;
31680;SDS011;18281;51.364;9.566;2023-02-15T06:27:08;12.68;;;8.80;;
31680;SDS011;18281;51.364;9.566;2023-02-15T06:29:37;13.05;;;8.60;;
31680;SDS011;18281;51.364;9.566;2023-02-15T06:32:03;16.20;;;9.57;;
31680;SDS011;18281;51.364;9.566;2023-02-15T06:34:29;12.73;;;8.70;;
31680;SDS011;18281;51.364;9.566;2023-02-15T06:36:55;13.50;;;8.50;;
31680;SDS011;18281;51.364;9.566;2023-02-15T06:39:20;14.25;;;9.65;;
31680;SDS011;18281;51.364;9.566;2023-02-15T06:41:46;16.88;;;9.18;;
31680;SDS011;18281;51.364;9.566;2023-02-15T06:44:11;13.98;;;9.20;;
31680;SDS011;18281;51.364;9.566;2023-02-15T06:46:36;14.70;;;9.38;;
31680;SDS011;18281;51.364;9.566;2023-02-15T06:49:02;14.20;;;9.05;;
31680;SDS011;18281;51.364;9.566;2023-02-15T06:51:27;15.13;;;9.65;;
31680;SDS011;18281;51.364;9.566;2023-02-15T06:53:52;16.20;;;9.50;;
31680;SDS011;18281;51.364;9.566;2023-02-15T06:56:18;15.35;;;9.05;;
31680;SDS011;18281;51.364;9.566;2023-02-15T06:58:43;12.98;;;8.90;;
31680;SDS011;18281;51.364;9.566;2023-02-15T07:01:10;13.52;;;8.85;;
31680;SDS011;18281;51.364;9.566;2023-02-15T07:03:37;14.48;;;8.98;;
31680;SDS011;18281;51.364;9.566;2023-02-15T07:06:03;13.70;;;9.10;;
31680;SDS011;18281;51.364;9.566;2023-02-15T07:08:33;20.17;;;9.98;;
31680;SDS011;18281;51.364;9.566;2023-02-15T07:10:58;13.45;;;9.73;;
31680;SDS011;18281;51.364;9.566;2023-02-15T07:13:44;13.93;;;8.98;;
31680;SDS011;18281;51.364;9.566;2023-02-15T07:16:09;14.98;;;9.32;;
31680;SDS011;18281;51.364;9.566;2023-02-15T07:18:35;14.60;;;9.57;;
31680;SDS011;18281;51.364;9.566;2023-02-15T07:21:00;15.13;;;9.27;;
31680;SDS011;18281;51.364;9.566;2023-02-15T07:23:26;15.13;;;9.80;;
31680;SDS011;18281;51.364;9.566;2023-02-15T07:25:58;14.45;;;9.55;;
31680;SDS011;18281;51.364;9.566;2023-02-15T07:28:24;15.80;;;9.32;;
31680;SDS011;18281;51.364;9.566;2023-02-15T07:30:50;15.60;;;10.00;;
31680;SDS011;18281;51.364;9.566;2023-02-15T07:33:15;13.93;;;9.07;;
31680;SDS011;18281;51.364;9.566;2023-02-15T07:35:50;14.10;;;8.63;;
31680;SDS011;18281;51.364;9.566;2023-02-15T07:38:17;15.85;;;9.50;;
31680;SDS011;18281;51.364;9.566;2023-02-15T07:40:43;15.15;;;9.65;;
31680;SDS011;18281;51.364;9.566;2023-02-15T07:43:09;14.10;;;9.25;;
31680;SDS011;18281;51.364;9.566;2023-02-15T07:45:34;11.30;;;6.60;;
31680;SDS011;18281;51.364;9.566;2023-02-15T07:48:03;15.30;;;8.95;;
31680;SDS011;18281;51.364;9.566;2023-02-15T07:50:29;15.73;;;10.05;;
31680;SDS011;18281;51.364;9.566;2023-02-15T07:52:55;14.95;;;9.18;;
31680;SDS011;18281;51.364;9.566;2023-02-15T07:55:20;15.68;;;8.50;;
31680;SDS011;18281;51.364;9.566;2023-02-15T07:57:46;13.30;;;9.00;;
31680;SDS011;18281;51.364;9.566;2023-02-15T08:00:14;12.07;;;8.57;;
31680;SDS011;18281;51.364;9.566;2023-02-15T08:02:41;12.82;;;8.82;;
31680;SDS011;18281;51.364;9.566;2023-02-15T08:05:07;12.68;;;8.40;;
31680;SDS011;18281;51.364;9.566;2023-02-15T08:07:32;13.65;;;8.90;;
31680;SDS011;18281;51.364;9.566;2023-02-15T08:09:58;15.25;;;9.15;;
31680;SDS011;18281;51.364;9.566;2023-02-15T08:12:25;13.98;;;9.00;;
31680;SDS011;18281;51.364;9.566;2023-02-15T08:14:51;13.48;;;9.15;;
31680;SDS011;18281;51.364;9.566;2023-02-15T08:17:17;13.95;;;8.60;;
31680;SDS011;18281;51.364;9.566;2023-02-15T08:19:43;12.80;;;7.80;;
31680;SDS011;18281;51.364;9.566;2023-02-15T08:22:10;16.33;;;9.63;;
31680;SDS011;18281;51.364;9.566;2023-02-15T08:24:37;15.93;;;9.45;;
31680;SDS011;18281;51.364;9.566;2023-02-15T08:27:03;15.23;;;9.43;;
31680;SDS011;18281;51.364;9.566;2023-02-15T08:29:30;16.52;;;9.70;;
31680;SDS011;18281;51.364;9.566;2023-02-15T08:31:57;12.85;;;8.82;;
31680;SDS011;18281;51.364;9.566;2023-02-15T08:34:29;14.20;;;9.23;;
31680;SDS011;18281;51.364;9.566;2023-02-15T08:36:57;15.80;;;9.65;;
31680;SDS011;18281;51.364;9.566;2023-02-15T08:39:22;14.77;;;9.27;;
31680;SDS011;18281;51.364;9.566;2023-02-15T08:41:48;14.38;;;9.30;;
31680;SDS011;18281;51.364;9.566;2023-02-15T08:44:15;14.70;;;9.18;;
31680;SDS011;18281;51.364;9.566;2023-02-15T08:46:42;16.60;;;9.05;;
31680;SDS011;18281;51.364;9.566;2023-02-15T08:49:09;16.60;;;9.75;;
31680;SDS011;18281;51.364;9.566;2023-02-15T08:51:38;16.05;;;9.55;;
31680;SDS011;18281;51.364;9.566;2023-02-15T08:54:05;15.70;;;10.30;;
31680;SDS011;18281;51.364;9.566;2023-02-15T08:56:35;18.23;;;10.60;;
31680;SDS011;18281;51.364;9.566;2023-02-15T08:59:01;17.73;;;10.07;;
31680;SDS011;18281;51.364;9.566;2023-02-15T09:01:29;18.23;;;11.20;;
31680;SDS011;18281;51.364;9.566;2023-02-15T09:04:00;17.15;;;10.63;;
31680;SDS011;18281;51.364;9.566;2023-02-15T09:06:26;16.08;;;10.02;;
31680;SDS011;18281;51.364;9.566;2023-02-15T09:08:53;18.42;;;10.02;;
31680;SDS011;18281;51.364;9.566;2023-02-15T09:11:20;16.55;;;10.10;;
31680;SDS011;18281;51.364;9.566;2023-02-15T09:14:07;16.35;;;10.10;;
31680;SDS011;18281;51.364;9.566;2023-02-15T09:16:35;21.08;;;11.73;;
31680;SDS011;18281;51.364;9.566;2023-02-15T09:19:02;18.55;;;11.00;;
31680;SDS011;18281;51.364;9.566;2023-02-15T09:21:30;17.90;;;10.50;;
31680;SDS011;18281;51.364;9.566;2023-02-15T09:23:57;26.70;;;11.82;;
31680;SDS011;18281;51.364;9.566;2023-02-15T09:26:25;19.27;;;11.32;;
31680;SDS011;18281;51.364;9.566;2023-02-15T09:28:52;20.48;;;10.77;;
31680;SDS011;18281;51.364;9.566;2023-02-15T09:31:21;18.98;;;10.85;;
31680;SDS011;18281;51.364;9.566;2023-02-15T09:33:49;21.00;;;10.53;;
31680;SDS011;18281;51.364;9.566;2023-02-15T09:36:22;18.15;;;10.73;;
31680;SDS011;18281;51.364;9.566;2023-02-15T09:39:01;18.48;;;10.18;;
31680;SDS011;18281;51.364;9.566;2023-02-15T10:03:57;20.15;;;10.82;;
31680;SDS011;18281;51.364;9.566;2023-02-15T10:10:09;18.98;;;10.70;;
31680;SDS011;18281;51.364;9.566;2023-02-15T10:12:56;18.90;;;10.82;;
31680;SDS011;18281;51.364;9.566;2023-02-15T10:15:42;19.50;;;11.20;;
31680;SDS011;18281;51.364;9.566;2023-02-15T10:18:31;19.98;;;11.63;;
31680;SDS011;18281;51.364;9.566;2023-02-15T10:26:56;28.65;;;15.95;;
31680;SDS011;18281;51.364;9.566;2023-02-15T10:29:37;24.90;;;14.23;;
31680;SDS011;18281;51.364;9.566;2023-02-15T10:32:23;21.25;;;12.45;;
31680;SDS011;18281;51.364;9.566;2023-02-15T10:50:56;22.37;;;10.73;;
31680;SDS011;18281;51.364;9.566;2023-02-15T10:56:19;23.45;;;11.82;;
31680;SDS011;18281;51.364;9.566;2023-02-15T10:59:13;21.23;;;11.30;;
31680;SDS011;18281;51.364;9.566;2023-02-15T11:04:39;19.52;;;11.43;;
31680;SDS011;18281;51.364;9.566;2023-02-15T11:07:32;22.58;;;11.25;;
31680;SDS011;18281;51.364;9.566;2023-02-15T11:10:01;19.30;;;10.93;;
31680;SDS011;18281;51.364;9.566;2023-02-15T11:12:40;19.60;;;10.55;;
31680;SDS011;18281;51.364;9.566;2023-02-15T11:18:06;21.58;;;10.93;;
31680;SDS011;18281;51.364;9.566;2023-02-15T11:23:35;21.15;;;11.10;;
31680;SDS011;18281;51.364;9.566;2023-02-15T11:26:09;21.23;;;12.10;;
31680;SDS011;18281;51.364;9.566;2023-02-15T11:28:43;17.83;;;10.30;;
31680;SDS011;18281;51.364;9.566;2023-02-15T11:31:18;21.45;;;11.15;;
31680;SDS011;18281;51.364;9.566;2023-02-15T11:33:48;23.98;;;11.55;;
31680;SDS011;18281;51.364;9.566;2023-02-15T11:36:22;24.90;;;13.20;;
31680;SDS011;18281;51.364;9.566;2023-02-15T11:38:56;21.45;;;12.13;;
31680;SDS011;18281;51.364;9.566;2023-02-15T11:41:25;19.15;;;10.98;;
31680;SDS011;18281;51.364;9.566;2023-02-15T11:46:30;20.60;;;11.18;;
31680;SDS011;18281;51.364;9.566;2023-02-15T11:48:55;21.92;;;10.95;;
31680;SDS011;18281;51.364;9.566;2023-02-15T11:51:21;18.17;;;10.90;;
31680;SDS011;18281;51.364;9.566;2023-02-15T11:53:47;23.55;;;11.88;;
31680;SDS011;18281;51.364;9.566;2023-02-15T11:56:21;20.40;;;11.23;;
31680;SDS011;18281;51.364;9.566;2023-02-15T11:59:51;21.35;;;11.70;;
31680;SDS011;18281;51.364;9.566;2023-02-15T12:01:53;22.17;;;11.25;;
31680;SDS011;18281;51.364;9.566;2023-02-15T12:04:22;20.65;;;11.93;;
31680;SDS011;18281;51.364;9.566;2023-02-15T12:07:02;18.58;;;10.73;;
31680;SDS011;18281;51.364;9.566;2023-02-15T12:09:59;21.77;;;11.50;;
31680;SDS011;18281;51.364;9.566;2023-02-15T12:12:38;18.63;;;10.45;;
31680;SDS011;18281;51.364;9.566;2023-02-15T12:15:06;21.17;;;11.02;;
31680;SDS011;18281;51.364;9.566;2023-02-15T12:17:33;20.92;;;11.30;;
31680;SDS011;18281;51.364;9.566;2023-02-15T12:22:46;20.63;;;11.35;;
31680;SDS011;18281;51.364;9.566;2023-02-15T12:25:23;20.67;;;11.95;;
31680;SDS011;18281;51.364;9.566;2023-02-15T12:27:54;21.65;;;12.30;;
31680;SDS011;18281;51.364;9.566;2023-02-15T12:30:25;23.10;;;12.45;;
31680;SDS011;18281;51.364;9.566;2023-02-15T12:32:53;22.00;;;11.98;;
31680;SDS011;18281;51.364;9.566;2023-02-15T12:35:28;22.48;;;12.10;;
31680;SDS011;18281;51.364;9.566;2023-02-15T12:38:03;24.20;;;11.73;;
31680;SDS011;18281;51.364;9.566;2023-02-15T12:40:34;20.48;;;11.25;;
31680;SDS011;18281;51.364;9.566;2023-02-15T12:43:00;18.08;;;11.23;;
31680;SDS011;18281;51.364;9.566;2023-02-15T12:45:33;21.88;;;12.27;;
31680;SDS011;18281;51.364;9.566;2023-02-15T12:50:37;20.92;;;12.25;;
31680;SDS011;18281;51.364;9.566;2023-02-15T12:53:21;20.10;;;11.98;;
31680;SDS011;18281;51.364;9.566;2023-02-15T12:58:25;21.92;;;11.98;;
31680;SDS011;18281;51.364;9.566;2023-02-15T13:03:57;21.55;;;12.10;;
31680;SDS011;18281;51.364;9.566;2023-02-15T13:06:26;20.58;;;12.13;;
31680;SDS011;18281;51.364;9.566;2023-02-15T13:08:54;21.45;;;11.95;;
31680;SDS011;18281;51.364;9.566;2023-02-15T13:11:29;20.58;;;12.05;;
31680;SDS011;18281;51.364;9.566;2023-02-15T13:14:48;24.42;;;12.60;;
31680;SDS011;18281;51.364;9.566;2023-02-15T13:16:56;22.60;;;12.65;;
31680;SDS011;18281;51.364;9.566;2023-02-15T13:22:07;22.95;;;11.82;;
31680;SDS011;18281;51.364;9.566;2023-02-15T13:24:53;21.20;;;11.25;;
31680;SDS011;18281;51.364;9.566;2023-02-15T13:27:23;20.23;;;10.68;;
31680;SDS011;18281;51.364;9.566;2023-02-15T13:29:55;21.38;;;10.60;;
31680;SDS011;18281;51.364;9.566;2023-02-15T13:32:28;18.75;;;9.55;;
31680;SDS011;18281;51.364;9.566;2023-02-15T13:35:03;21.42;;;10.73;;
31680;SDS011;18281;51.364;9.566;2023-02-15T13:40:18;22.33;;;12.93;;
31680;SDS011;18281;51.364;9.566;2023-02-15T13:42:52;23.23;;;13.00;;
31680;SDS011;18281;51.364;9.566;2023-02-15T13:47:58;20.98;;;12.60;;
31680;SDS011;18281;51.364;9.566;2023-02-15T13:50:35;21.77;;;12.25;;
31680;SDS011;18281;51.364;9.566;2023-02-15T13:56:24;21.88;;;12.30;;
31680;SDS011;18281;51.364;9.566;2023-02-15T13:59:05;22.15;;;12.60;;
31680;SDS011;18281;51.364;9.566;2023-02-15T14:01:57;21.23;;;12.18;;
31680;SDS011;18281;51.364;9.566;2023-02-15T14:13:05;20.63;;;11.85;;
31680;SDS011;18281;51.364;9.566;2023-02-15T14:21:07;29.08;;;13.95;;
31680;SDS011;18281;51.364;9.566;2023-02-15T14:26:24;31.50;;;14.98;;
31680;SDS011;18281;51.364;9.566;2023-02-15T14:31:40;40.67;;;14.98;;
31680;SDS011;18281;51.364;9.566;2023-02-15T14:37:26;44.58;;;15.30;;
31680;SDS011;18281;51.364;9.566;2023-02-15T14:43:22;27.42;;;13.55;;
31680;SDS011;18281;51.364;9.566;2023-02-15T14:45:58;31.33;;;14.85;;
31680;SDS011;18281;51.364;9.566;2023-02-15T14:48:26;29.73;;;14.30;;
31680;SDS011;18281;51.364;9.566;2023-02-15T14:50:55;26.90;;;14.00;;
31680;SDS011;18281;51.364;9.566;2023-02-15T15:01:32;30.02;;;14.25;;
31680;SDS011;18281;51.364;9.566;2023-02-15T15:04:06;30.40;;;15.20;;
31680;SDS011;18281;51.364;9.566;2023-02-15T15:06:37;30.95;;;16.17;;
31680;SDS011;18281;51.364;9.566;2023-02-15T15:09:12;31.13;;;14.60;;
31680;SDS011;18281;51.364;9.566;2023-02-15T15:16:59;32.35;;;15.25;;
31680;SDS011;18281;51.364;9.566;2023-02-15T15:25:40;29.90;;;15.95;;
31680;SDS011;18281;51.364;9.566;2023-02-15T15:27:57;30.08;;;14.55;;
31680;SDS011;18281;51.364;9.566;2023-02-15T15:49:39;31.65;;;15.65;;
31680;SDS011;18281;51.364;9.566;2023-02-15T15:52:12;34.10;;;16.55;;
31680;SDS011;18281;51.364;9.566;2023-02-15T15:54:40;29.80;;;16.20;;
31680;SDS011;18281;51.364;9.566;2023-02-15T15:57:12;35.08;;;16.85;;
31680;SDS011;18281;51.364;9.566;2023-02-15T15:59:44;31.60;;;16.45;;
31680;SDS011;18281;51.364;9.566;2023-02-15T16:02:13;29.00;;;15.35;;
31680;SDS011;18281;51.364;9.566;2023-02-15T16:04:44;31.75;;;16.42;;
31680;SDS011;18281;51.364;9.566;2023-02-15T16:09:56;31.90;;;16.02;;
31680;SDS011;18281;51.364;9.566;2023-02-15T16:12:24;34.88;;;16.95;;
31680;SDS011;18281;51.364;9.566;2023-02-15T16:14:52;37.20;;;17.63;;
31680;SDS011;18281;51.364;9.566;2023-02-15T16:17:28;35.72;;;16.77;;
31680;SDS011;18281;51.364;9.566;2023-02-15T16:20:03;34.28;;;16.13;;
31680;SDS011;18281;51.364;9.566;2023-02-15T16:22:32;32.58;;;16.60;;
31680;SDS011;18281;51.364;9.566;2023-02-15T16:25:08;36.33;;;18.05;;
31680;SDS011;18281;51.364;9.566;2023-02-15T16:27:42;38.65;;;18.17;;
31680;SDS011;18281;51.364;9.566;2023-02-15T16:30:19;41.28;;;19.70;;
31680;SDS011;18281;51.364;9.566;2023-02-15T16:33:33;36.05;;;18.50;;
31680;SDS011;18281;51.364;9.566;2023-02-15T16:36:01;38.60;;;18.42;;
31680;SDS011;18281;51.364;9.566;2023-02-15T16:41:21;33.38;;;16.90;;
31680;SDS011;18281;51.364;9.566;2023-02-15T16:43:49;35.15;;;17.15;;
31680;SDS011;18281;51.364;9.566;2023-02-15T16:46:18;34.42;;;16.70;;
31680;SDS011;18281;51.364;9.566;2023-02-15T16:48:50;36.33;;;17.73;;
31680;SDS011;18281;51.364;9.566;2023-02-15T16:53:47;45.47;;;20.63;;
31680;SDS011;18281;51.364;9.566;2023-02-15T16:56:13;47.63;;;22.17;;
31680;SDS011;18281;51.364;9.566;2023-02-15T16:58:41;42.28;;;20.33;;
31680;SDS011;18281;51.364;9.566;2023-02-15T17:01:10;40.97;;;20.40;;
31680;SDS011;18281;51.364;9.566;2023-02-15T17:03:39;40.05;;;20.33;;
31680;SDS011;18281;51.364;9.566;2023-02-15T17:06:04;37.95;;;20.08;;
31680;SDS011;18281;51.364;9.566;2023-02-15T17:13:36;32.92;;;17.55;;
31680;SDS011;18281;51.364;9.566;2023-02-15T17:20:58;30.83;;;16.27;;
31680;SDS011;18281;51.364;9.566;2023-02-15T17:23:40;30.45;;;16.83;;
31680;SDS011;18281;51.364;9.566;2023-02-15T17:26:11;32.47;;;17.55;;
31680;SDS011;18281;51.364;9.566;2023-02-15T17:28:54;31.10;;;16.48;;
31680;SDS011;18281;51.364;9.566;2023-02-15T17:31:24;32.42;;;17.40;;
31680;SDS011;18281;51.364;9.566;2023-02-15T17:33:53;36.92;;;18.60;;
31680;SDS011;18281;51.364;9.566;2023-02-15T17:36:21;33.15;;;18.27;;
31680;SDS011;18281;51.364;9.566;2023-02-15T17:41:23;32.05;;;17.75;;
31680;SDS011;18281;51.364;9.566;2023-02-15T17:43:48;33.38;;;17.27;;
31680;SDS011;18281;51.364;9.566;2023-02-15T17:46:13;37.25;;;18.33;;
31680;SDS011;18281;51.364;9.566;2023-02-15T17:48:41;32.20;;;17.73;;
31680;SDS011;18281;51.364;9.566;2023-02-15T17:51:09;32.33;;;18.30;;
31680;SDS011;18281;51.364;9.566;2023-02-15T17:53:37;38.70;;;18.23;;
31680;SDS011;18281;51.364;9.566;2023-02-15T17:56:02;36.22;;;18.23;;
31680;SDS011;18281;51.364;9.566;2023-02-15T17:58:45;34.05;;;17.58;;
31680;SDS011;18281;51.364;9.566;2023-02-15T18:01:13;35.78;;;19.42;;
31680;SDS011;18281;51.364;9.566;2023-02-15T18:04:00;35.58;;;17.55;;
31680;SDS011;18281;51.364;9.566;2023-02-15T18:06:44;26.63;;;13.85;;
31680;SDS011;18281;51.364;9.566;2023-02-15T18:09:28;30.48;;;15.82;;